Time;durP1;ratioP1;P1;durP2;ratioP2;P2;SDS_P1;SDS_P2;PMS_P1;PMS_P2;Temp;Humidity;BMP_temperature;BMP_pressure;BME280_temperature;BME280_humidity;BME280_pressure;Samples;Min_cycle;Max_cycle;Signal;HPM_P1;HPM_P2
2022/12/25 00:01:24;;;;;;;54.53;17.42;;;6.80;99.90;;;;;;4899220;29;20052;-77
2022/12/25 00:03:50;;;;;;;54.60;17.08;;;6.80;99.90;;;;;;4899817;29;20397;-77
2022/12/25 00:06:17;;;;;;;40.53;16.65;;;6.80;99.90;;;;;;4896029;29;20067;-77
2022/12/25 00:08:43;;;;;;;46.03;17.17;;;7.10;99.90;;;;;;4883714;29;20053;-76
2022/12/25 00:11:14;;;;;;;55.78;17.27;;;6.80;99.90;;;;;;4900763;29;20136;-76
2022/12/25 00:13:40;;;;;;;48.00;17.40;;;7.00;99.90;;;;;;4872591;29;20063;-76
2022/12/25 00:16:09;;;;;;;47.70;17.55;;;6.80;99.90;;;;;;4864922;29;20528;-76
2022/12/25 00:18:35;;;;;;;55.63;16.38;;;7.70;99.90;;;;;;4888265;29;20113;-76
2022/12/25 00:21:03;;;;;;;52.33;17.20;;;6.70;99.90;;;;;;4900970;29;20058;-77
2022/12/25 00:23:30;;;;;;;50.10;16.92;;;6.70;99.90;;;;;;4900157;29;20113;-77
2022/12/25 00:25:56;;;;;;;49.80;17.33;;;6.70;99.90;;;;;;4867625;29;20063;-76
2022/12/25 00:28:23;;;;;;;54.42;17.05;;;6.70;99.90;;;;;;4917627;29;20056;-76
2022/12/25 00:30:48;;;;;;;46.78;16.95;;;6.70;99.90;;;;;;4885726;29;20083;-77
2022/12/25 00:33:15;;;;;;;60.60;18.33;;;6.60;99.90;;;;;;4882222;29;20102;-77
2022/12/25 00:35:40;;;;;;;49.08;17.50;;;7.40;99.90;;;;;;4906447;29;20048;-76
2022/12/25 00:38:06;;;;;;;63.40;17.67;;;7.20;99.90;;;;;;4900155;29;20135;-77
2022/12/25 00:40:32;;;;;;;55.03;16.80;;;6.60;99.90;;;;;;4913928;29;20092;-77
2022/12/25 00:42:57;;;;;;;49.67;17.30;;;7.90;99.90;;;;;;4885470;29;20057;-77
2022/12/25 00:45:23;;;;;;;50.90;17.83;;;7.70;99.90;;;;;;4901655;29;20488;-77
2022/12/25 00:47:49;;;;;;;54.95;16.15;;;6.60;99.90;;;;;;4908624;29;20052;-76
2022/12/25 00:50:14;;;;;;;54.97;17.67;;;6.60;99.90;;;;;;4906732;29;20437;-76
2022/12/25 00:52:40;;;;;;;51.72;17.77;;;6.70;99.90;;;;;;4899837;29;20082;-77
2022/12/25 00:55:06;;;;;;;52.15;16.40;;;6.60;99.90;;;;;;4918035;29;20449;-77
2022/12/25 00:57:32;;;;;;;52.28;18.10;;;6.70;99.90;;;;;;4900147;29;20409;-77
2022/12/25 00:59:58;;;;;;;53.72;18.25;;;7.70;99.90;;;;;;4901605;29;20064;-76
2022/12/25 01:02:24;;;;;;;55.97;16.15;;;6.70;99.90;;;;;;4882824;29;20060;-77
2022/12/25 01:04:54;;;;;;;52.78;18.08;;;6.70;99.90;;;;;;4889388;29;20096;-77
2022/12/25 01:07:23;;;;;;;50.63;16.42;;;7.90;99.90;;;;;;4874595;29;20128;-76
2022/12/25 01:12:35;;;;;;;56.03;17.60;;;8.20;99.90;;;;;;4899752;29;20052;-76
2022/12/25 01:15:01;;;;;;;53.55;18.63;;;7.10;99.90;;;;;;4880427;29;20049;-77
2022/12/25 01:17:27;;;;;;;54.22;17.92;;;6.70;99.90;;;;;;4891141;29;20059;-76
2022/12/25 01:19:52;;;;;;;54.30;17.50;;;6.70;99.90;;;;;;4890428;29;20169;-77
2022/12/25 01:22:18;;;;;;;60.13;17.80;;;7.80;99.90;;;;;;4896467;29;20119;-76
2022/12/25 01:24:44;;;;;;;57.78;18.80;;;6.80;99.90;;;;;;4874351;29;20465;-76
2022/12/25 01:27:10;;;;;;;53.72;17.00;;;8.10;99.90;;;;;;4900863;29;20059;-77
2022/12/25 01:29:36;;;;;;;56.08;19.30;;;7.80;99.90;;;;;;4887612;29;20059;-76
2022/12/25 01:32:02;;;;;;;64.68;19.75;;;6.80;99.90;;;;;;4882356;29;20052;-76
2022/12/25 01:34:28;;;;;;;78.45;20.10;;;6.80;99.90;;;;;;4894640;29;20053;-77
2022/12/25 01:36:54;;;;;;;72.15;19.17;;;6.90;99.90;;;;;;4890364;29;20115;-77
2022/12/25 01:39:19;;;;;;;62.28;19.13;;;8.20;99.90;;;;;;4900848;29;20135;-76
2022/12/25 01:41:46;;;;;;;60.90;17.77;;;6.90;99.90;;;;;;4916781;29;20127;-76
2022/12/25 01:44:18;;;;;;;77.53;22.23;;;7.70;99.90;;;;;;4870147;29;20082;-76
2022/12/25 01:46:44;;;;;;;67.50;20.13;;;7.00;99.90;;;;;;4893131;29;20056;-76
2022/12/25 01:49:21;;;;;;;59.75;19.90;;;8.20;99.90;;;;;;4891715;29;20056;-77
2022/12/25 01:52:21;;;;;;;56.85;17.92;;;7.30;99.90;;;;;;4904468;29;20438;-76
2022/12/25 01:55:02;;;;;;;62.05;19.73;;;7.10;99.90;;;;;;4879546;29;20061;-77
2022/12/25 01:57:31;;;;;;;59.97;19.75;;;8.10;99.90;;;;;;4899599;29;20135;-76
2022/12/25 01:59:58;;;;;;;68.20;20.35;;;8.30;99.90;;;;;;4881484;29;20060;-76
2022/12/25 02:02:25;;;;;;;65.18;17.98;;;8.20;99.90;;;;;;4896238;29;20060;-76
2022/12/25 02:05:00;;;;;;;61.13;20.10;;;7.10;99.90;;;;;;4907258;29;20060;-76
2022/12/25 02:07:28;;;;;;;85.97;21.45;;;7.20;99.90;;;;;;4899173;29;20408;-76
2022/12/25 02:09:54;;;;;;;67.50;19.70;;;7.20;99.90;;;;;;4898210;29;20070;-77
2022/12/25 02:12:31;;;;;;;65.72;19.88;;;7.10;99.90;;;;;;4903400;29;20448;-76
2022/12/25 02:15:21;;;;;;;60.97;19.80;;;7.60;99.90;;;;;;4898161;29;20052;-76
2022/12/25 02:17:56;;;;;;;65.88;19.67;;;7.10;99.90;;;;;;4900191;29;20500;-76
2022/12/25 02:20:35;;;;;;;74.22;20.85;;;7.20;99.90;;;;;;4887393;29;20167;-76
2022/12/25 02:23:12;;;;;;;73.72;21.13;;;7.20;99.90;;;;;;4880622;29;20067;-77
2022/12/25 02:25:56;;;;;;;56.60;20.08;;;7.50;99.90;;;;;;4881005;29;20059;-77
2022/12/25 02:28:33;;;;;;;57.70;20.50;;;7.20;99.90;;;;;;4911528;29;20505;-76
2022/12/25 02:31:11;;;;;;;64.50;20.15;;;7.20;99.90;;;;;;4912990;29;20108;-76
2022/12/25 02:34:13;;;;;;;60.40;20.30;;;7.90;99.90;;;;;;4871980;29;20055;-76
2022/12/25 02:37:00;;;;;;;59.30;22.13;;;7.30;99.90;;;;;;4883541;29;20053;-76
2022/12/25 02:39:56;;;;;;;60.58;20.92;;;7.30;99.90;;;;;;4897910;29;20093;-76
2022/12/25 03:08:33;;;;;;;54.78;20.63;;;7.70;99.90;;;;;;4897349;29;20131;-76
2022/12/25 03:13:51;;;;;;;47.80;18.15;;;8.90;99.90;;;;;;4883164;29;20113;-76
2022/12/25 03:26:53;;;;;;;49.95;18.40;;;8.20;99.90;;;;;;4903462;29;20049;-76
2022/12/25 03:27:17;;;;;;;50.63;19.67;;;7.70;99.90;;;;;;4895647;29;20453;-76
2022/12/25 03:32:32;;;;;;;49.60;17.83;;;8.60;99.90;;;;;;4907264;29;20083;-75
2022/12/25 03:35:24;;;;;;;50.08;18.58;;;8.20;99.90;;;;;;4898845;29;20477;-75
2022/12/25 04:36:36;;;;;;;55.85;21.30;;;8.00;99.90;;;;;;4883439;29;20048;-75
2022/12/25 04:39:02;;;;;;;54.20;21.30;;;8.00;99.90;;;;;;4898636;29;20055;-76
2022/12/25 04:41:28;;;;;;;54.00;21.75;;;8.00;99.90;;;;;;4884744;29;20068;-76
2022/12/25 04:43:53;;;;;;;53.75;21.23;;;8.00;99.90;;;;;;4882639;29;20108;-76
2022/12/25 04:46:19;;;;;;;69.43;22.20;;;8.60;99.90;;;;;;4888147;29;20509;-76
2022/12/25 04:48:44;;;;;;;58.45;22.02;;;9.00;99.90;;;;;;4901074;29;20044;-76
2022/12/25 04:51:16;;;;;;;58.55;21.27;;;8.50;99.90;;;;;;4887827;29;20048;-76
2022/12/25 04:53:42;;;;;;;60.97;21.70;;;8.10;99.90;;;;;;4895803;29;20056;-76
2022/12/25 04:56:08;;;;;;;59.55;23.60;;;8.20;99.90;;;;;;4899041;29;20481;-76
2022/12/25 04:58:33;;;;;;;60.10;22.95;;;8.20;99.90;;;;;;4893600;29;20112;-76
2022/12/25 05:01:00;;;;;;;58.65;22.50;;;8.20;99.90;;;;;;4884992;29;20052;-76
2022/12/25 05:03:26;;;;;;;55.28;21.00;;;8.20;99.90;;;;;;4880132;29;20067;-76
2022/12/25 05:05:52;;;;;;;63.38;22.27;;;9.50;99.90;;;;;;4899775;29;20361;-76
2022/12/25 05:08:17;;;;;;;60.40;21.45;;;9.20;99.90;;;;;;4901469;29;20142;-76
2022/12/25 05:10:43;;;;;;;62.83;22.88;;;9.40;99.90;;;;;;4902114;29;20056;-76
2022/12/25 05:13:09;;;;;;;55.58;22.42;;;8.30;99.90;;;;;;4886451;29;20474;-76
2022/12/25 05:15:37;;;;;;;62.22;23.15;;;8.30;99.90;;;;;;4896418;29;20100;-76
2022/12/25 05:18:03;;;;;;;63.72;22.23;;;8.40;99.90;;;;;;4915868;29;20063;-76
2022/12/25 05:20:29;;;;;;;57.05;21.50;;;8.40;99.90;;;;;;4883136;29;20041;-76
2022/12/25 05:22:54;;;;;;;52.28;20.65;;;8.40;99.90;;;;;;4899155;29;20525;-76
2022/12/25 05:25:20;;;;;;;58.60;22.42;;;9.10;99.90;;;;;;4913326;29;20420;-76
2022/12/25 05:27:45;;;;;;;62.03;19.80;;;8.50;99.90;;;;;;4898659;29;20052;-76
2022/12/25 05:30:11;;;;;;;56.67;20.45;;;8.50;99.90;;;;;;4881677;29;20071;-76
2022/12/25 05:32:37;;;;;;;53.00;21.27;;;8.50;99.90;;;;;;4882109;29;20048;-76
2022/12/25 05:35:03;;;;;;;56.33;20.92;;;8.50;99.90;;;;;;4911433;29;20055;-76
2022/12/25 05:37:28;;;;;;;55.40;20.48;;;8.50;99.90;;;;;;4898588;29;20139;-76
2022/12/25 05:39:54;;;;;;;53.78;20.20;;;8.80;99.90;;;;;;4870221;29;20052;-76
2022/12/25 05:42:20;;;;;;;65.40;20.73;;;8.60;99.90;;;;;;4864883;29;20058;-76
2022/12/25 05:44:45;;;;;;;52.58;20.88;;;8.60;99.90;;;;;;4903613;29;20077;-76
2022/12/25 05:47:11;;;;;;;52.58;21.17;;;8.50;99.90;;;;;;4898226;29;20207;-76
2022/12/25 05:49:36;;;;;;;59.38;22.25;;;9.70;99.90;;;;;;4888426;29;20533;-77
2022/12/25 05:52:02;;;;;;;52.50;19.23;;;9.50;99.90;;;;;;4909817;29;20127;-76
2022/12/25 05:54:28;;;;;;;50.95;19.95;;;8.60;99.90;;;;;;4896978;29;20080;-76
2022/12/25 05:56:53;;;;;;;53.97;20.35;;;9.20;99.90;;;;;;4886307;29;20124;-76
2022/12/25 05:59:19;;;;;;;54.92;20.88;;;9.40;99.90;;;;;;4871886;29;20560;-76
2022/12/25 06:01:45;;;;;;;52.58;20.77;;;8.60;99.90;;;;;;4881414;29;20056;-77
2022/12/25 06:04:10;;;;;;;62.78;22.50;;;8.90;99.90;;;;;;4888032;29;20068;-76
2022/12/25 06:06:36;;;;;;;66.28;21.95;;;9.50;99.90;;;;;;4916013;29;20521;-76
2022/12/25 06:09:02;;;;;;;57.78;20.05;;;8.60;99.90;;;;;;4917497;29;20087;-76
2022/12/25 06:11:27;;;;;;;55.33;21.65;;;8.50;99.90;;;;;;4917287;29;20052;-76
2022/12/25 06:13:53;;;;;;;66.72;22.92;;;8.90;99.90;;;;;;4905302;29;20378;-76
2022/12/25 06:16:19;;;;;;;61.03;21.08;;;9.40;99.90;;;;;;4898480;29;20196;-76
2022/12/25 06:18:51;;;;;;;56.50;23.02;;;9.80;99.90;;;;;;4881856;29;20056;-77
2022/12/25 06:21:16;;;;;;;63.30;23.58;;;8.70;99.90;;;;;;4898123;29;20091;-76
2022/12/25 06:23:42;;;;;;;62.15;24.08;;;8.50;99.90;;;;;;4889471;29;20456;-76
2022/12/25 06:26:14;;;;;;;64.10;23.10;;;9.30;99.90;;;;;;4916923;29;20063;-76
2022/12/25 06:28:40;;;;;;;78.22;23.92;;;8.50;99.90;;;;;;4917001;29;20051;-77
2022/12/25 06:31:19;;;;;;;61.97;23.80;;;8.60;99.90;;;;;;4899715;29;20056;-76
2022/12/25 06:33:45;;;;;;;64.75;24.70;;;9.50;99.90;;;;;;4900000;29;20060;-76
2022/12/25 06:36:22;;;;;;;69.45;24.40;;;8.60;99.90;;;;;;4884124;29;20044;-76
2022/12/25 06:38:48;;;;;;;69.82;23.88;;;8.60;99.90;;;;;;4916483;29;20492;-76
2022/12/25 06:41:17;;;;;;;67.57;25.40;;;9.40;99.90;;;;;;4915072;29;20063;-76
2022/12/25 06:43:42;;;;;;;78.93;24.90;;;9.80;99.90;;;;;;4917065;29;20327;-76
2022/12/25 06:46:11;;;;;;;69.55;24.73;;;8.60;99.90;;;;;;4899837;29;20123;-76
2022/12/25 06:48:38;;;;;;;69.93;24.48;;;8.60;99.90;;;;;;4899727;29;20095;-76
2022/12/25 06:51:05;;;;;;;62.45;25.60;;;9.00;99.90;;;;;;4916381;29;20464;-76
2022/12/25 06:53:31;;;;;;;72.70;25.42;;;8.60;99.90;;;;;;4886987;29;20061;-76
2022/12/25 06:56:04;;;;;;;63.42;24.80;;;9.80;99.90;;;;;;4897546;29;20127;-76
2022/12/25 06:58:29;;;;;;;64.45;26.92;;;8.60;99.90;;;;;;4881087;29;20131;-76
2022/12/25 07:00:56;;;;;;;64.43;25.05;;;8.60;99.90;;;;;;4865474;29;20163;-77
2022/12/25 07:03:22;;;;;;;66.88;25.17;;;9.50;99.90;;;;;;4865523;29;20052;-76
2022/12/25 07:05:48;;;;;;;69.68;25.80;;;8.60;99.90;;;;;;4880638;29;20494;-76
2022/12/25 07:08:13;;;;;;;65.25;26.05;;;9.10;99.90;;;;;;4897405;29;20132;-76
2022/12/25 07:10:39;;;;;;;61.60;24.98;;;8.60;99.90;;;;;;4880761;29;20493;-76
2022/12/25 07:13:04;;;;;;;59.95;25.77;;;9.70;99.90;;;;;;4897660;29;20481;-76
2022/12/25 07:15:30;;;;;;;67.13;26.50;;;9.80;99.90;;;;;;4880298;29;20052;-76
2022/12/25 07:17:56;;;;;;;68.70;27.23;;;8.70;99.90;;;;;;4880890;29;20088;-76
2022/12/25 07:20:21;;;;;;;65.85;25.02;;;8.60;99.90;;;;;;4865064;29;20533;-76
2022/12/25 07:22:47;;;;;;;76.20;26.05;;;9.10;99.90;;;;;;4898628;29;20116;-76
2022/12/25 07:25:13;;;;;;;60.58;25.38;;;8.70;99.90;;;;;;4898911;29;20135;-76
2022/12/25 07:27:39;;;;;;;62.70;24.80;;;8.60;99.90;;;;;;4897720;29;20138;-76
2022/12/25 07:30:06;;;;;;;59.17;24.33;;;8.60;99.90;;;;;;4897281;29;20107;-76
2022/12/25 07:32:32;;;;;;;59.15;25.00;;;8.60;99.90;;;;;;4899321;29;20404;-76
2022/12/25 07:34:57;;;;;;;60.72;25.67;;;8.80;99.90;;;;;;4899068;29;20171;-77
2022/12/25 07:37:23;;;;;;;66.10;24.83;;;8.70;99.90;;;;;;4915611;29;20373;-76
2022/12/25 07:39:49;;;;;;;57.17;25.55;;;8.60;99.90;;;;;;4880683;29;20053;-76
2022/12/25 07:42:14;;;;;;;50.60;23.27;;;8.70;99.90;;;;;;4894848;29;20083;-76
2022/12/25 07:44:40;;;;;;;61.30;24.65;;;9.80;99.90;;;;;;4880706;29;20045;-76
2022/12/25 07:47:06;;;;;;;60.00;24.42;;;9.60;99.90;;;;;;4880178;29;20048;-76
2022/12/25 07:49:31;;;;;;;51.60;23.67;;;8.70;99.90;;;;;;4878539;29;20127;-76
2022/12/25 07:51:57;;;;;;;54.60;23.30;;;9.80;99.90;;;;;;4876812;29;20067;-77
2022/12/25 07:54:23;;;;;;;58.42;24.13;;;8.80;99.90;;;;;;4913777;29;20087;-76
2022/12/25 07:56:52;;;;;;;54.47;23.27;;;8.80;99.90;;;;;;4915912;29;20146;-76
2022/12/25 07:59:18;;;;;;;51.95;22.60;;;8.80;99.90;;;;;;4915356;29;20067;-77
2022/12/25 08:01:44;;;;;;;41.90;21.52;;;8.80;99.90;;;;;;4898430;29;20056;-78
2022/12/25 08:04:10;;;;;;;45.65;22.42;;;9.00;99.90;;;;;;4899010;29;20063;-76
2022/12/25 08:06:37;;;;;;;44.85;22.83;;;9.80;99.90;;;;;;4902089;29;20060;-76
2022/12/25 08:09:06;;;;;;;42.72;21.33;;;9.70;99.90;;;;;;4917657;29;20189;-76
2022/12/25 08:11:31;;;;;;;46.47;21.92;;;9.40;99.90;;;;;;4915331;29;20059;-76
2022/12/25 08:13:57;;;;;;;43.67;21.73;;;9.70;99.90;;;;;;4897374;29;20060;-76
2022/12/25 08:16:23;;;;;;;44.70;21.67;;;10.20;99.90;;;;;;4903891;29;20044;-76
2022/12/25 08:18:48;;;;;;;40.47;21.58;;;8.90;99.90;;;;;;4900592;29;20055;-76
2022/12/25 08:21:15;;;;;;;43.88;21.27;;;8.90;99.90;;;;;;4889437;29;20060;-76
2022/12/25 08:23:43;;;;;;;36.60;19.63;;;9.90;99.90;;;;;;4899299;29;20059;-75
2022/12/25 08:26:13;;;;;;;39.38;20.45;;;8.90;99.90;;;;;;4900227;29;20060;-76
2022/12/25 08:28:39;;;;;;;39.90;19.52;;;8.90;99.90;;;;;;4903499;29;20139;-76
2022/12/25 08:31:07;;;;;;;38.15;19.27;;;9.00;99.90;;;;;;4883220;29;20090;-76
2022/12/25 08:33:32;;;;;;;43.55;18.88;;;9.40;99.90;;;;;;4883535;29;20406;-76
2022/12/25 08:36:03;;;;;;;41.03;19.40;;;9.00;99.90;;;;;;4900133;29;20071;-76
2022/12/25 08:38:29;;;;;;;39.30;17.95;;;9.00;99.90;;;;;;4914809;29;20052;-76
2022/12/25 08:40:55;;;;;;;38.60;18.45;;;9.70;99.90;;;;;;4898690;29;20520;-76
2022/12/25 08:43:20;;;;;;;36.60;18.35;;;9.10;99.90;;;;;;4910711;29;20081;-76
2022/12/25 08:45:46;;;;;;;36.92;18.27;;;10.20;99.90;;;;;;4883081;29;20099;-76
2022/12/25 08:48:12;;;;;;;43.13;18.55;;;9.10;99.90;;;;;;4899551;29;20067;-76
2022/12/25 08:50:38;;;;;;;35.58;17.40;;;9.10;99.90;;;;;;4899713;29;20052;-76
2022/12/25 08:53:03;;;;;;;35.70;17.50;;;9.10;99.90;;;;;;4883097;29;20060;-76
2022/12/25 08:55:29;;;;;;;37.42;16.30;;;10.10;99.90;;;;;;4899896;29;20068;-76
2022/12/25 08:57:58;;;;;;;28.50;15.13;;;9.10;99.90;;;;;;4898887;29;20060;-76
2022/12/25 09:00:24;;;;;;;35.00;16.15;;;9.10;99.90;;;;;;4898400;29;20142;-76
2022/12/25 09:02:49;;;;;;;29.60;16.55;;;9.10;99.90;;;;;;4899720;29;20498;-76
2022/12/25 09:05:15;;;;;;;31.58;15.93;;;9.10;99.90;;;;;;4899505;29;20523;-76
2022/12/25 09:07:41;;;;;;;29.27;15.10;;;9.40;99.90;;;;;;4882651;29;20088;-76
2022/12/25 09:10:07;;;;;;;28.63;14.88;;;9.20;99.90;;;;;;4899619;29;20170;-76
2022/12/25 09:12:32;;;;;;;30.40;15.57;;;9.10;99.90;;;;;;4882442;29;20068;-76
2022/12/25 09:14:58;;;;;;;32.75;15.43;;;10.00;99.90;;;;;;4883098;29;20061;-76
2022/12/25 09:17:24;;;;;;;29.98;15.43;;;9.40;99.90;;;;;;4890455;29;20405;-76
2022/12/25 09:19:49;;;;;;;25.30;13.80;;;10.10;99.90;;;;;;4882662;29;20061;-75
2022/12/25 09:22:15;;;;;;;28.52;14.13;;;9.20;99.90;;;;;;4881331;29;20053;-76
2022/12/25 09:24:42;;;;;;;25.42;14.75;;;9.90;99.90;;;;;;4880776;29;20064;-74
2022/12/25 09:27:08;;;;;;;28.63;13.88;;;9.20;99.90;;;;;;4863634;29;20079;-76
2022/12/25 09:29:33;;;;;;;24.25;13.05;;;9.90;99.90;;;;;;4889150;29;20071;-76
2022/12/25 09:31:59;;;;;;;24.45;13.90;;;9.20;99.90;;;;;;4898840;29;20044;-76
2022/12/25 09:34:25;;;;;;;22.35;12.68;;;9.20;99.90;;;;;;4899202;29;20493;-76
2022/12/25 09:36:50;;;;;;;25.30;12.57;;;9.70;99.90;;;;;;4898743;29;20490;-75
2022/12/25 09:39:16;;;;;;;19.20;11.73;;;9.60;99.90;;;;;;4881762;29;20064;-76
2022/12/25 09:42:03;;;;;;;22.15;11.90;;;9.20;99.90;;;;;;4880370;29;20064;-76
2022/12/25 09:44:33;;;;;;;21.15;11.25;;;9.20;99.90;;;;;;4882053;29;20061;-76
2022/12/25 09:47:03;;;;;;;27.10;12.73;;;9.30;99.90;;;;;;4898560;29;20522;-76
2022/12/25 09:49:47;;;;;;;25.50;12.00;;;9.20;99.90;;;;;;4863749;29;20528;-76
2022/12/25 09:52:41;;;;;;;21.23;11.60;;;9.20;99.90;;;;;;4878238;29;20068;-76
2022/12/25 09:55:19;;;;;;;18.23;10.38;;;9.30;99.90;;;;;;4877479;29;20564;-76
2022/12/25 09:57:50;;;;;;;18.58;10.50;;;9.30;99.90;;;;;;4878387;29;20053;-76
2022/12/25 10:00:18;;;;;;;18.13;9.90;;;9.30;99.90;;;;;;4893661;29;20062;-76
2022/12/25 10:02:56;;;;;;;18.77;10.65;;;9.30;99.90;;;;;;4882104;29;20417;-76
2022/12/25 10:05:48;;;;;;;19.92;11.05;;;9.30;99.90;;;;;;4887159;29;20056;-76
2022/12/25 10:08:16;;;;;;;19.15;10.35;;;9.30;99.90;;;;;;4878289;29;20143;-76
2022/12/25 10:10:51;;;;;;;18.25;9.73;;;9.30;99.90;;;;;;4888943;29;20060;-76
2022/12/25 10:13:34;;;;;;;24.15;9.85;;;9.30;99.90;;;;;;4898942;29;20107;-76
2022/12/25 10:16:09;;;;;;;15.93;9.18;;;9.30;99.90;;;;;;4896345;29;20127;-76
2022/12/25 10:18:50;;;;;;;22.45;10.13;;;9.30;99.90;;;;;;4897548;29;20394;-76
2022/12/25 10:21:17;;;;;;;17.33;9.90;;;10.10;99.90;;;;;;4881054;29;20060;-75
2022/12/25 10:23:54;;;;;;;20.85;9.60;;;9.40;99.90;;;;;;4879696;29;20148;-75
2022/12/25 10:26:24;;;;;;;18.88;9.80;;;9.30;99.90;;;;;;4880743;29;20072;-75
2022/12/25 10:29:14;;;;;;;19.67;9.30;;;9.80;99.90;;;;;;4898021;29;20064;-75
2022/12/25 10:31:44;;;;;;;17.90;8.90;;;9.30;99.90;;;;;;4880981;29;20509;-75
2022/12/25 10:34:12;;;;;;;16.50;8.55;;;9.30;99.90;;;;;;4865880;29;20070;-75
2022/12/25 10:36:40;;;;;;;17.60;9.00;;;9.40;99.90;;;;;;4897543;29;20057;-75
2022/12/25 10:39:05;;;;;;;17.00;9.45;;;9.40;99.90;;;;;;4891122;29;20087;-75
2022/12/25 10:42:09;;;;;;;18.80;8.70;;;9.40;99.90;;;;;;4899289;29;20450;-75
2022/12/25 10:44:34;;;;;;;16.58;8.50;;;9.40;99.90;;;;;;4916766;29;20497;-75
2022/12/25 10:47:02;;;;;;;14.45;8.68;;;9.40;99.90;;;;;;4899267;29;20063;-79
2022/12/25 10:49:31;;;;;;;13.90;7.93;;;9.40;99.90;;;;;;4891824;29;20064;-74
2022/12/25 10:51:57;;;;;;;15.23;8.50;;;10.10;99.90;;;;;;4879915;29;20147;-74
2022/12/25 10:54:34;;;;;;;17.60;8.00;;;10.00;99.90;;;;;;4897658;29;20117;-75
2022/12/25 10:57:02;;;;;;;18.25;8.35;;;9.40;99.90;;;;;;4880941;29;20088;-75
2022/12/25 10:59:32;;;;;;;15.38;8.27;;;9.40;99.90;;;;;;4897911;29;20067;-74
2022/12/25 11:02:13;;;;;;;18.08;8.40;;;9.40;99.90;;;;;;4896126;29;20060;-75
2022/12/25 11:04:39;;;;;;;13.48;8.07;;;9.50;99.90;;;;;;4897428;29;20173;-75
2022/12/25 11:07:12;;;;;;;16.98;7.32;;;9.50;99.90;;;;;;4908351;29;20052;-76
2022/12/25 11:09:38;;;;;;;16.80;7.85;;;9.60;99.90;;;;;;4899425;29;20068;-73
2022/12/25 11:12:04;;;;;;;15.95;7.57;;;9.90;99.90;;;;;;4914285;29;20048;-73
2022/12/25 11:14:30;;;;;;;16.38;7.60;;;9.70;99.90;;;;;;4898118;29;20062;-73
2022/12/25 11:17:06;;;;;;;14.73;7.85;;;10.20;99.90;;;;;;4916382;29;20067;-73
2022/12/25 11:19:32;;;;;;;15.10;7.85;;;10.40;99.90;;;;;;4897011;29;20083;-77
2022/12/25 11:22:00;;;;;;;13.48;7.53;;;10.40;99.90;;;;;;4880151;29;20048;-73
2022/12/25 11:24:28;;;;;;;17.45;7.70;;;10.30;99.90;;;;;;4900705;29;20083;-72
2022/12/25 11:27:00;;;;;;;13.02;7.05;;;9.80;99.90;;;;;;4889650;29;20044;-74
2022/12/25 11:29:45;;;;;;;12.77;6.93;;;9.80;99.90;;;;;;4880050;29;20517;-74
2022/12/25 11:32:21;;;;;;;14.85;7.25;;;9.70;99.90;;;;;;4896783;29;20064;-74
2022/12/25 11:34:48;;;;;;;11.85;6.82;;;9.70;99.90;;;;;;4897545;29;20394;-74
2022/12/25 11:37:34;;;;;;;15.52;7.10;;;10.40;99.90;;;;;;4896725;29;20061;-74
2022/12/25 11:40:01;;;;;;;13.15;6.75;;;9.80;99.90;;;;;;4878997;29;20060;-74
2022/12/25 11:42:39;;;;;;;13.43;6.07;;;9.70;99.90;;;;;;4904577;29;20072;-74
2022/12/25 11:45:15;;;;;;;13.45;6.90;;;9.80;99.90;;;;;;4888164;29;20056;-74
2022/12/25 11:48:04;;;;;;;14.73;6.70;;;9.80;99.90;;;;;;4900785;29;20446;-74
2022/12/25 11:50:40;;;;;;;13.00;6.80;;;9.70;99.90;;;;;;4900042;29;20442;-74
2022/12/25 11:53:17;;;;;;;14.43;6.65;;;9.70;99.90;;;;;;4883934;29;20056;-74
2022/12/25 11:55:55;;;;;;;12.32;6.75;;;9.70;99.90;;;;;;4899840;29;20413;-74
2022/12/25 11:58:42;;;;;;;12.52;6.50;;;9.70;99.90;;;;;;4899706;29;20053;-74
2022/12/25 12:01:14;;;;;;;;;;;9.70;99.90;;;;;;4900989;29;20060;-74
2022/12/25 12:03:41;;;;;;;13.27;6.57;;;9.70;99.90;;;;;;4899001;29;19981;-74
2022/12/25 12:06:32;;;;;;;13.80;6.38;;;9.60;99.90;;;;;;4899101;29;20056;-74
2022/12/25 12:09:32;;;;;;;14.55;6.32;;;9.60;99.90;;;;;;4899837;29;20057;-74
2022/12/25 12:12:35;;;;;;;16.55;6.68;;;9.60;99.90;;;;;;4897614;29;20103;-74
2022/12/25 12:15:17;;;;;;;11.20;5.95;;;9.60;99.90;;;;;;4900353;29;20068;-74
2022/12/25 12:17:42;;;;;;;13.85;6.95;;;9.60;99.90;;;;;;4883581;29;20098;-73
2022/12/25 12:20:32;;;;;;;16.85;6.45;;;9.70;99.90;;;;;;4883502;29;20092;-74
2022/12/25 12:22:59;;;;;;;16.00;6.40;;;9.60;99.90;;;;;;4900471;29;20064;-73
2022/12/25 12:25:25;;;;;;;14.35;6.65;;;9.70;99.90;;;;;;4900386;29;20107;-73
2022/12/25 12:27:55;;;;;;;19.27;6.82;;;9.60;99.90;;;;;;4899358;29;20104;-74
2022/12/25 12:30:28;;;;;;;10.82;6.53;;;10.00;99.90;;;;;;4883331;29;20227;-74
2022/12/25 12:32:57;;;;;;;11.77;6.22;;;9.70;99.90;;;;;;4883356;29;20052;-74
2022/12/25 12:35:33;;;;;;;12.23;6.38;;;10.80;99.90;;;;;;4900119;29;20057;-74
2022/12/25 12:38:10;;;;;;;11.98;6.03;;;9.70;99.90;;;;;;4883337;29;20061;-74
2022/12/25 12:40:40;;;;;;;17.15;6.30;;;9.70;99.90;;;;;;4900010;29;20053;-73
2022/12/25 12:43:37;;;;;;;10.50;6.03;;;9.90;99.90;;;;;;4900062;29;20067;-74
2022/12/25 12:46:13;;;;;;;;;;;9.70;99.90;;;;;;4867827;29;20386;-74
2022/12/25 12:48:42;;;;;;;12.23;6.47;;;9.70;99.90;;;;;;4882989;29;19923;-73
2022/12/25 12:51:11;;;;;;;12.88;6.22;;;9.70;99.90;;;;;;4898439;29;20417;-74
2022/12/25 12:53:41;;;;;;;11.70;6.55;;;10.20;99.90;;;;;;4882737;29;20473;-73
2022/12/25 12:56:18;;;;;;;11.80;6.18;;;10.30;99.90;;;;;;4899391;29;20078;-74
2022/12/25 12:58:49;;;;;;;10.48;6.47;;;9.70;99.90;;;;;;4900043;29;20056;-73
2022/12/25 13:01:44;;;;;;;11.73;6.50;;;9.80;99.90;;;;;;4882469;29;20044;-73
2022/12/25 13:04:46;;;;;;;13.43;6.93;;;10.10;99.90;;;;;;4899781;29;20417;-73
2022/12/25 13:07:18;;;;;;;14.25;6.47;;;9.70;99.90;;;;;;4882137;29;20516;-74
2022/12/25 13:10:30;;;;;;;16.05;6.50;;;9.70;99.90;;;;;;4899054;29;20070;-74
2022/12/25 13:13:00;;;;;;;12.02;7.18;;;9.80;99.90;;;;;;4882263;29;20056;-73
2022/12/25 13:15:29;;;;;;;13.65;6.70;;;9.70;99.90;;;;;;4898154;29;20078;-73
2022/12/25 13:18:00;;;;;;;14.45;7.05;;;9.80;99.90;;;;;;4899569;29;20135;-73
2022/12/25 13:20:40;;;;;;;12.52;6.43;;;9.80;99.90;;;;;;4899121;29;20124;-74
2022/12/25 13:23:14;;;;;;;11.88;6.60;;;9.80;99.90;;;;;;4896827;29;20502;-74
2022/12/25 13:25:39;;;;;;;11.27;5.88;;;10.50;99.90;;;;;;4879963;29;20095;-74
2022/12/25 13:28:05;;;;;;;10.93;6.47;;;9.80;99.90;;;;;;4882578;29;20143;-73
2022/12/25 13:30:31;;;;;;;13.95;5.90;;;9.80;99.90;;;;;;4898899;29;20060;-73
2022/12/25 13:32:58;;;;;;;9.77;6.07;;;9.80;99.90;;;;;;4882344;29;20060;-74
2022/12/25 13:35:24;;;;;;;8.70;6.10;;;9.80;99.90;;;;;;4898686;29;20059;-74
2022/12/25 13:37:51;;;;;;;13.07;6.70;;;9.80;99.90;;;;;;4897424;29;20056;-74
2022/12/25 13:40:23;;;;;;;12.02;6.28;;;9.80;99.90;;;;;;4898900;29;20056;-73
2022/12/25 13:42:51;;;;;;;10.57;6.43;;;10.60;99.90;;;;;;4899325;29;20143;-73
2022/12/25 13:45:26;;;;;;;10.77;6.35;;;9.80;99.90;;;;;;4898848;29;20108;-74
2022/12/25 13:47:52;;;;;;;10.57;6.07;;;9.80;99.90;;;;;;4898978;29;20057;-74
2022/12/25 13:50:28;;;;;;;12.60;6.47;;;9.80;99.90;;;;;;4866207;29;20104;-74
2022/12/25 13:52:55;;;;;;;12.18;7.20;;;9.80;99.90;;;;;;4898802;29;20053;-74
2022/12/25 13:55:28;;;;;;;11.25;6.65;;;9.80;99.90;;;;;;4898712;29;20085;-73
2022/12/25 13:57:59;;;;;;;12.50;7.20;;;9.80;99.90;;;;;;4898691;29;20052;-74
2022/12/25 14:00:54;;;;;;;12.82;7.55;;;10.30;99.90;;;;;;4898583;29;20056;-74
2022/12/25 14:03:45;;;;;;;17.08;8.27;;;9.80;99.90;;;;;;4898109;29;20131;-73
2022/12/25 14:06:26;;;;;;;12.93;7.78;;;10.20;99.90;;;;;;4895844;29;20187;-74
2022/12/25 14:08:54;;;;;;;13.40;8.13;;;9.80;99.90;;;;;;4898774;29;20462;-74
2022/12/25 14:11:22;;;;;;;14.45;7.80;;;9.90;99.90;;;;;;4895898;29;20123;-73
2022/12/25 14:13:52;;;;;;;12.10;8.75;;;10.10;99.90;;;;;;4898483;29;20097;-74
2022/12/25 14:16:19;;;;;;;13.95;8.93;;;10.10;99.90;;;;;;4898053;29;20059;-73
2022/12/25 14:19:00;;;;;;;16.70;8.68;;;9.80;99.90;;;;;;4898645;29;20053;-73
2022/12/25 14:21:48;;;;;;;15.68;10.45;;;9.80;99.90;;;;;;4897330;29;20052;-73
2022/12/25 14:24:15;;;;;;;15.93;9.95;;;10.10;99.90;;;;;;4895844;29;20132;-74
2022/12/25 14:26:41;;;;;;;19.13;10.38;;;9.80;99.90;;;;;;4898027;29;20063;-74
2022/12/25 14:29:10;;;;;;;17.33;10.85;;;10.30;99.90;;;;;;4881097;29;20066;-73
2022/12/25 14:31:37;;;;;;;18.70;13.35;;;9.80;99.90;;;;;;4898041;29;20486;-74
2022/12/25 14:34:09;;;;;;;19.95;13.32;;;9.80;99.90;;;;;;4898234;29;20071;-74
2022/12/25 14:36:36;;;;;;;19.33;14.30;;;9.80;99.90;;;;;;4897638;29;20170;-74
2022/12/25 14:39:05;;;;;;;24.35;15.02;;;9.80;99.90;;;;;;4883033;29;20078;-74